sensor_id;sensor_type;location;lat;lon;timestamp;pressure;altitude;pressure_sealevel;temperature;humidity
62524;BME280;53689;56.878;60.672;2023-02-18T00:00:56;98289.53;;;20.62;17.49
62524;BME280;53689;56.878;60.672;2023-02-18T00:03:26;98300.69;;;20.59;18.69
62524;BME280;53689;56.878;60.672;2023-02-18T00:05:53;98305.94;;;20.68;17.54
62524;BME280;53689;56.878;60.672;2023-02-18T00:08:21;98305.75;;;20.69;18.55
62524;BME280;53689;56.878;60.672;2023-02-18T00:10:49;98302.88;;;20.71;18.81
62524;BME280;53689;56.878;60.672;2023-02-18T00:13:17;98306.59;;;20.70;17.62
62524;BME280;53689;56.878;60.672;2023-02-18T00:15:45;98303.25;;;20.68;17.54
62524;BME280;53689;56.878;60.672;2023-02-18T00:18:13;98295.75;;;20.63;16.61
62524;BME280;53689;56.878;60.672;2023-02-18T00:20:42;98315.41;;;20.63;17.52
62524;BME280;53689;56.878;60.672;2023-02-18T00:23:09;98327.66;;;20.66;18.83
62524;BME280;53689;56.878;60.672;2023-02-18T00:25:37;98307.34;;;20.63;17.17
62524;BME280;53689;56.878;60.672;2023-02-18T00:28:05;98309.78;;;20.58;17.43
62524;BME280;53689;56.878;60.672;2023-02-18T00:30:32;98316.38;;;20.56;17.22
62524;BME280;53689;56.878;60.672;2023-02-18T00:33:00;98326.28;;;20.55;17.55
62524;BME280;53689;56.878;60.672;2023-02-18T00:35:28;98308.56;;;20.61;18.48
62524;BME280;53689;56.878;60.672;2023-02-18T00:37:57;98309.13;;;20.56;18.96
62524;BME280;53689;56.878;60.672;2023-02-18T00:40:24;98302.72;;;20.57;18.32
62524;BME280;53689;56.878;60.672;2023-02-18T00:42:53;98296.97;;;20.60;18.84
62524;BME280;53689;56.878;60.672;2023-02-18T00:45:20;98294.69;;;20.79;19.55
62524;BME280;53689;56.878;60.672;2023-02-18T00:47:48;98294.53;;;20.65;19.65
62524;BME280;53689;56.878;60.672;2023-02-18T00:50:16;98285.94;;;20.77;18.88
62524;BME280;53689;56.878;60.672;2023-02-18T00:52:43;98283.25;;;20.55;17.72
62524;BME280;53689;56.878;60.672;2023-02-18T00:55:12;98283.88;;;20.57;18.97
62524;BME280;53689;56.878;60.672;2023-02-18T00:57:40;98284.28;;;20.54;19.41
62524;BME280;53689;56.878;60.672;2023-02-18T01:00:08;98277.41;;;20.51;18.40
62524;BME280;53689;56.878;60.672;2023-02-18T01:02:37;98279.09;;;20.52;18.76
62524;BME280;53689;56.878;60.672;2023-02-18T01:05:05;98269.44;;;20.58;19.14
62524;BME280;53689;56.878;60.672;2023-02-18T01:07:32;98270.84;;;20.54;18.78
62524;BME280;53689;56.878;60.672;2023-02-18T01:10:00;98272.03;;;20.51;18.03
62524;BME280;53689;56.878;60.672;2023-02-18T01:12:29;98267.56;;;20.59;18.96
62524;BME280;53689;56.878;60.672;2023-02-18T01:14:56;98269.56;;;20.50;18.00
62524;BME280;53689;56.878;60.672;2023-02-18T01:17:24;98273.69;;;20.52;18.27
62524;BME280;53689;56.878;60.672;2023-02-18T01:19:52;98267.91;;;20.49;17.85
62524;BME280;53689;56.878;60.672;2023-02-18T01:22:20;98273.69;;;20.52;17.91
62524;BME280;53689;56.878;60.672;2023-02-18T01:24:47;98267.13;;;20.55;18.29
62524;BME280;53689;56.878;60.672;2023-02-18T01:27:15;98260.53;;;20.58;17.86
62524;BME280;53689;56.878;60.672;2023-02-18T01:29:45;98259.84;;;20.49;18.89
62524;BME280;53689;56.878;60.672;2023-02-18T01:32:13;98265.84;;;20.51;17.29
62524;BME280;53689;56.878;60.672;2023-02-18T01:34:41;98267.06;;;20.48;18.97
62524;BME280;53689;56.878;60.672;2023-02-18T01:37:08;98269.56;;;20.50;18.01
62524;BME280;53689;56.878;60.672;2023-02-18T01:39:36;98268.78;;;20.56;18.83
62524;BME280;53689;56.878;60.672;2023-02-18T01:42:05;98261.28;;;20.51;19.23
62524;BME280;53689;56.878;60.672;2023-02-18T01:44:34;98263.22;;;20.58;19.06
62524;BME280;53689;56.878;60.672;2023-02-18T01:47:03;98265.00;;;20.50;20.30
62524;BME280;53689;56.878;60.672;2023-02-18T01:49:33;98276.53;;;20.44;17.30
62524;BME280;53689;56.878;60.672;2023-02-18T01:52:04;98265.38;;;20.47;19.00
62524;BME280;53689;56.878;60.672;2023-02-18T01:54:37;98270.94;;;20.46;19.51
62524;BME280;53689;56.878;60.672;2023-02-18T01:57:08;98278.66;;;20.49;17.75
62524;BME280;53689;56.878;60.672;2023-02-18T01:59:38;98267.50;;;20.52;17.93
62524;BME280;53689;56.878;60.672;2023-02-18T02:02:11;98272.63;;;20.47;18.29
62524;BME280;53689;56.878;60.672;2023-02-18T02:04:39;98262.13;;;20.52;18.47
62524;BME280;53689;56.878;60.672;2023-02-18T02:07:09;98262.06;;;20.45;19.20
62524;BME280;53689;56.878;60.672;2023-02-18T02:09:38;98263.72;;;20.46;19.22
62524;BME280;53689;56.878;60.672;2023-02-18T02:12:28;98250.97;;;20.55;18.45
62524;BME280;53689;56.878;60.672;2023-02-18T02:15:08;98246.38;;;20.49;18.27
62524;BME280;53689;56.878;60.672;2023-02-18T02:17:54;98246.38;;;20.49;18.40
62524;BME280;53689;56.878;60.672;2023-02-18T02:20:56;98230.66;;;20.52;17.90
62524;BME280;53689;56.878;60.672;2023-02-18T02:32:55;98223.84;;;20.72;20.96
62524;BME280;53689;56.878;60.672;2023-02-18T02:35:28;98221.78;;;20.52;18.76
62524;BME280;53689;56.878;60.672;2023-02-18T02:38:02;98222.53;;;20.46;19.50
62524;BME280;53689;56.878;60.672;2023-02-18T02:40:37;98221.91;;;20.44;17.42
62524;BME280;53689;56.878;60.672;2023-02-18T02:43:14;98222.53;;;20.46;18.60
62524;BME280;53689;56.878;60.672;2023-02-18T02:45:50;98225.06;;;20.47;18.78
62524;BME280;53689;56.878;60.672;2023-02-18T02:48:27;98216.13;;;20.47;17.62
62524;BME280;53689;56.878;60.672;2023-02-18T02:51:03;98217.38;;;20.44;18.28
62524;BME280;53689;56.878;60.672;2023-02-18T02:53:34;98223.38;;;20.46;18.57
62524;BME280;53689;56.878;60.672;2023-02-18T02:56:03;98219.41;;;20.42;18.35
62524;BME280;53689;56.878;60.672;2023-02-18T02:58:31;98223.38;;;20.46;18.99
62524;BME280;53689;56.878;60.672;2023-02-18T03:01:12;98231.66;;;19.63;18.91
62524;BME280;53689;56.878;60.672;2023-02-18T03:04:04;98224.19;;;20.47;17.47
62524;BME280;53689;56.878;60.672;2023-02-18T03:09:46;98228.16;;;20.29;16.41
62524;BME280;53689;56.878;60.672;2023-02-18T03:12:24;98221.97;;;20.29;17.63
62524;BME280;53689;56.878;60.672;2023-02-18T03:15:02;98222.41;;;20.32;17.52
62524;BME280;53689;56.878;60.672;2023-02-18T03:17:35;98225.91;;;20.33;17.38
62524;BME280;53689;56.878;60.672;2023-02-18T03:20:08;98228.44;;;20.34;18.08
62524;BME280;53689;56.878;60.672;2023-02-18T03:22:41;98226.38;;;20.36;17.30
62524;BME280;53689;56.878;60.672;2023-02-18T03:25:11;98224.31;;;20.38;17.15
62524;BME280;53689;56.878;60.672;2023-02-18T03:27:44;98227.28;;;20.44;18.66
62524;BME280;53689;56.878;60.672;2023-02-18T03:30:16;98215.69;;;20.43;16.82
62524;BME280;53689;56.878;60.672;2023-02-18T03:32:49;98218.81;;;20.47;17.42
62524;BME280;53689;56.878;60.672;2023-02-18T03:35:21;98218.09;;;20.82;19.08
62524;BME280;53689;56.878;60.672;2023-02-18T03:37:54;98216.41;;;20.52;17.91
62524;BME280;53689;56.878;60.672;2023-02-18T03:40:24;98208.72;;;20.49;17.22
62524;BME280;53689;56.878;60.672;2023-02-18T03:42:51;98211.03;;;20.52;16.64
62524;BME280;53689;56.878;60.672;2023-02-18T03:45:19;98204.16;;;20.49;18.73
62524;BME280;53689;56.878;60.672;2023-02-18T03:47:47;98205.84;;;20.50;18.66
62524;BME280;53689;56.878;60.672;2023-02-18T03:50:15;98204.09;;;20.43;18.41
62524;BME280;53689;56.878;60.672;2023-02-18T03:52:43;98204.34;;;20.48;18.92
62524;BME280;53689;56.878;60.672;2023-02-18T03:55:12;98197.25;;;20.40;18.54
62524;BME280;53689;56.878;60.672;2023-02-18T03:57:40;98200.84;;;20.47;17.43
62524;BME280;53689;56.878;60.672;2023-02-18T04:00:08;98198.22;;;20.54;18.77
62524;BME280;53689;56.878;60.672;2023-02-18T04:02:41;98202.13;;;20.51;17.08
62524;BME280;53689;56.878;60.672;2023-02-18T04:05:10;98199.81;;;20.48;18.44
62524;BME280;53689;56.878;60.672;2023-02-18T04:07:38;98200.91;;;20.54;17.70
62524;BME280;53689;56.878;60.672;2023-02-18T04:10:07;98201.03;;;20.46;17.80
62524;BME280;53689;56.878;60.672;2023-02-18T04:12:36;98205.66;;;20.52;18.54
62524;BME280;53689;56.878;60.672;2023-02-18T04:15:04;98203.34;;;20.49;18.17
62524;BME280;53689;56.878;60.672;2023-02-18T04:17:32;98199.28;;;20.60;18.23
62524;BME280;53689;56.878;60.672;2023-02-18T04:20:00;98200.44;;;20.50;17.97
62524;BME280;53689;56.878;60.672;2023-02-18T04:22:28;98201.31;;;20.51;17.68
62524;BME280;53689;56.878;60.672;2023-02-18T04:24:55;98205.66;;;20.52;17.87
62524;BME280;53689;56.878;60.672;2023-02-18T04:27:23;98198.63;;;20.51;18.25
62524;BME280;53689;56.878;60.672;2023-02-18T04:29:52;98207.59;;;20.58;19.04
62524;BME280;53689;56.878;60.672;2023-02-18T04:32:20;98208.97;;;20.54;19.95
62524;BME280;53689;56.878;60.672;2023-02-18T04:34:48;98205.47;;;20.54;17.60
62524;BME280;53689;56.878;60.672;2023-02-18T04:37:15;98205.88;;;20.57;17.97
62524;BME280;53689;56.878;60.672;2023-02-18T04:39:43;98196.81;;;20.58;18.47
62524;BME280;53689;56.878;60.672;2023-02-18T04:42:11;98193.47;;;20.56;18.00
62524;BME280;53689;56.878;60.672;2023-02-18T04:44:39;98202.19;;;20.58;18.23
62524;BME280;53689;56.878;60.672;2023-02-18T04:47:09;98205.88;;;20.57;18.43
62524;BME280;53689;56.878;60.672;2023-02-18T04:49:36;98204.50;;;20.61;17.50
62524;BME280;53689;56.878;60.672;2023-02-18T04:52:04;98209.44;;;20.58;17.62
62524;BME280;53689;56.878;60.672;2023-02-18T04:54:32;98205.88;;;20.57;17.82
62524;BME280;53689;56.878;60.672;2023-02-18T04:57:00;98198.03;;;20.56;17.39
62524;BME280;53689;56.878;60.672;2023-02-18T04:59:28;98203.66;;;20.61;18.14
62524;BME280;53689;56.878;60.672;2023-02-18T05:01:55;98217.50;;;20.58;18.26
62524;BME280;53689;56.878;60.672;2023-02-18T05:04:24;98207.59;;;20.58;17.76
62524;BME280;53689;56.878;60.672;2023-02-18T05:06:52;98207.94;;;20.55;20.25
62524;BME280;53689;56.878;60.672;2023-02-18T05:09:20;98197.47;;;20.60;18.11
62524;BME280;53689;56.878;60.672;2023-02-18T05:11:48;98205.97;;;20.64;19.33
62524;BME280;53689;56.878;60.672;2023-02-18T05:14:15;98196.75;;;20.51;17.58
62524;BME280;53689;56.878;60.672;2023-02-18T05:16:43;98201.16;;;20.59;20.42
62524;BME280;53689;56.878;60.672;2023-02-18T05:19:13;98199.28;;;20.60;17.39
62524;BME280;53689;56.878;60.672;2023-02-18T05:21:42;98199.13;;;20.61;17.94
62524;BME280;53689;56.878;60.672;2023-02-18T05:24:10;98191.00;;;20.55;17.75
62524;BME280;53689;56.878;60.672;2023-02-18T05:26:38;98188.53;;;20.60;18.06
62524;BME280;53689;56.878;60.672;2023-02-18T05:29:05;98192.72;;;20.62;19.19
62524;BME280;53689;56.878;60.672;2023-02-18T05:31:33;98200.44;;;20.72;19.29
62524;BME280;53689;56.878;60.672;2023-02-18T05:34:01;98196.28;;;20.70;18.26
62524;BME280;53689;56.878;60.672;2023-02-18T05:36:28;98190.66;;;20.64;18.80
62524;BME280;53689;56.878;60.672;2023-02-18T05:38:57;98186.31;;;20.63;18.76
62524;BME280;53689;56.878;60.672;2023-02-18T05:41:25;98180.16;;;20.70;18.00
62524;BME280;53689;56.878;60.672;2023-02-18T05:43:52;98187.97;;;20.64;18.17
62524;BME280;53689;56.878;60.672;2023-02-18T05:46:20;98179.13;;;20.71;17.74
62524;BME280;53689;56.878;60.672;2023-02-18T05:48:48;98177.66;;;20.68;18.25
62524;BME280;53689;56.878;60.672;2023-02-18T05:51:16;98177.97;;;20.80;19.09
62524;BME280;53689;56.878;60.672;2023-02-18T05:53:43;98171.00;;;20.64;18.02
62524;BME280;53689;56.878;60.672;2023-02-18T05:56:12;98180.06;;;20.63;19.25
62524;BME280;53689;56.878;60.672;2023-02-18T05:58:40;98167.72;;;20.69;17.55
62524;BME280;53689;56.878;60.672;2023-02-18T06:01:08;98165.81;;;20.62;17.57
62524;BME280;53689;56.878;60.672;2023-02-18T06:03:35;98172.72;;;20.72;17.05
62524;BME280;53689;56.878;60.672;2023-02-18T06:06:03;98171.00;;;20.86;20.50
62524;BME280;53689;56.878;60.672;2023-02-18T06:08:31;98175.50;;;21.42;19.10
62524;BME280;53689;56.878;60.672;2023-02-18T06:10:59;98166.19;;;21.10;19.01
62524;BME280;53689;56.878;60.672;2023-02-18T06:13:28;98164.13;;;20.83;17.52
62524;BME280;53689;56.878;60.672;2023-02-18T06:15:56;98166.16;;;20.81;19.12
62524;BME280;53689;56.878;60.672;2023-02-18T06:18:24;98163.47;;;20.81;18.65
62524;BME280;53689;56.878;60.672;2023-02-18T06:20:52;98160.53;;;20.76;17.47
62524;BME280;53689;56.878;60.672;2023-02-18T06:23:20;98158.09;;;20.81;18.95
62524;BME280;53689;56.878;60.672;2023-02-18T06:25:48;98151.81;;;20.74;18.09
62524;BME280;53689;56.878;60.672;2023-02-18T06:28:16;98151.72;;;20.82;18.03
62524;BME280;53689;56.878;60.672;2023-02-18T06:30:45;98156.06;;;20.83;19.16
62524;BME280;53689;56.878;60.672;2023-02-18T06:33:13;98161.50;;;20.90;18.34
62524;BME280;53689;56.878;60.672;2023-02-18T06:35:41;98164.41;;;20.88;18.54
62524;BME280;53689;56.878;60.672;2023-02-18T06:38:08;98161.44;;;20.83;19.81
62524;BME280;53689;56.878;60.672;2023-02-18T06:40:36;98157.25;;;20.80;17.67
62524;BME280;53689;56.878;60.672;2023-02-18T06:43:04;98156.06;;;20.83;19.48
62524;BME280;53689;56.878;60.672;2023-02-18T06:45:31;98152.09;;;20.79;17.46
62524;BME280;53689;56.878;60.672;2023-02-18T06:48:01;98151.53;;;20.84;18.70
62524;BME280;53689;56.878;60.672;2023-02-18T06:50:28;98157.19;;;20.96;18.69
62524;BME280;53689;56.878;60.672;2023-02-18T06:52:56;98150.53;;;20.91;18.90
62524;BME280;53689;56.878;60.672;2023-02-18T06:55:24;98148.63;;;20.85;18.70
62524;BME280;53689;56.878;60.672;2023-02-18T06:57:52;98147.22;;;20.89;17.39
62524;BME280;53689;56.878;60.672;2023-02-18T07:00:20;98146.19;;;20.90;17.60
62524;BME280;53689;56.878;60.672;2023-02-18T07:02:48;98155.66;;;20.86;17.82
62524;BME280;53689;56.878;60.672;2023-02-18T07:05:17;98147.41;;;20.88;17.79
62524;BME280;53689;56.878;60.672;2023-02-18T07:07:45;98156.06;;;20.83;18.33
62524;BME280;53689;56.878;60.672;2023-02-18T07:10:12;98151.88;;;20.80;17.57
62524;BME280;53689;56.878;60.672;2023-02-18T07:12:40;98144.28;;;20.84;17.64
62524;BME280;53689;56.878;60.672;2023-02-18T07:15:09;98148.28;;;20.95;17.42
62524;BME280;53689;56.878;60.672;2023-02-18T07:17:37;98150.53;;;20.91;19.32
62524;BME280;53689;56.878;60.672;2023-02-18T07:20:05;98142.66;;;20.90;17.56
62524;BME280;53689;56.878;60.672;2023-02-18T07:22:35;98144.16;;;20.99;17.63
62524;BME280;53689;56.878;60.672;2023-02-18T07:25:03;98145.78;;;20.93;17.61
62524;BME280;53689;56.878;60.672;2023-02-18T07:27:30;98152.09;;;21.07;19.30
62524;BME280;53689;56.878;60.672;2023-02-18T07:29:58;98147.53;;;21.43;20.18
62524;BME280;53689;56.878;60.672;2023-02-18T07:32:26;98154.47;;;21.66;20.82
62524;BME280;53689;56.878;60.672;2023-02-18T07:34:53;98153.94;;;21.42;19.54
62524;BME280;53689;56.878;60.672;2023-02-18T07:37:21;98154.97;;;21.41;17.75
62524;BME280;53689;56.878;60.672;2023-02-18T07:39:50;98148.06;;;21.25;19.69
62524;BME280;53689;56.878;60.672;2023-02-18T07:42:18;98153.56;;;21.10;17.80
62524;BME280;53689;56.878;60.672;2023-02-18T07:44:46;98156.00;;;21.05;18.09
62524;BME280;53689;56.878;60.672;2023-02-18T07:47:16;98154.59;;;21.09;17.87
62524;BME280;53689;56.878;60.672;2023-02-18T07:49:44;98158.09;;;21.10;19.18
62524;BME280;53689;56.878;60.672;2023-02-18T07:52:12;98154.19;;;21.12;18.57
62524;BME280;53689;56.878;60.672;2023-02-18T07:54:39;98157.88;;;21.04;18.27
62524;BME280;53689;56.878;60.672;2023-02-18T07:57:08;98147.94;;;21.05;19.82
62524;BME280;53689;56.878;60.672;2023-02-18T07:59:37;98152.06;;;21.01;18.59
62524;BME280;53689;56.878;60.672;2023-02-18T08:02:04;98138.88;;;21.13;18.63
62524;BME280;53689;56.878;60.672;2023-02-18T08:04:32;98146.94;;;21.06;18.70
62524;BME280;53689;56.878;60.672;2023-02-18T08:07:00;98140.16;;;21.24;21.02
62524;BME280;53689;56.878;60.672;2023-02-18T08:09:27;98148.00;;;21.12;19.08
62524;BME280;53689;56.878;60.672;2023-02-18T08:11:55;98145.03;;;21.42;18.04
62524;BME280;53689;56.878;60.672;2023-02-18T08:14:24;98142.31;;;21.35;20.40
62524;BME280;53689;56.878;60.672;2023-02-18T08:16:52;98137.66;;;21.15;18.00
62524;BME280;53689;56.878;60.672;2023-02-18T08:19:19;98132.19;;;21.02;16.79
62524;BME280;53689;56.878;60.672;2023-02-18T08:21:47;98130.09;;;20.97;17.89
62524;BME280;53689;56.878;60.672;2023-02-18T08:24:14;98128.03;;;20.99;17.66
62524;BME280;53689;56.878;60.672;2023-02-18T08:26:42;98132.34;;;20.93;18.57
62524;BME280;53689;56.878;60.672;2023-02-18T08:29:27;98136.25;;;20.91;17.16
62524;BME280;53689;56.878;60.672;2023-02-18T08:31:55;98137.97;;;20.99;17.69
62524;BME280;53689;56.878;60.672;2023-02-18T08:34:23;98130.72;;;20.99;17.36
62524;BME280;53689;56.878;60.672;2023-02-18T08:36:51;98137.09;;;20.91;18.05
62524;BME280;53689;56.878;60.672;2023-02-18T08:39:19;98132.91;;;20.89;17.13
62524;BME280;53689;56.878;60.672;2023-02-18T08:41:46;98137.50;;;20.88;18.34
62524;BME280;53689;56.878;60.672;2023-02-18T08:44:14;98137.97;;;20.99;17.74
62524;BME280;53689;56.878;60.672;2023-02-18T08:46:43;98134.66;;;20.97;17.57
62524;BME280;53689;56.878;60.672;2023-02-18T08:49:11;98140.41;;;20.93;18.56
62524;BME280;53689;56.878;60.672;2023-02-18T08:51:38;98136.06;;;20.92;19.46
62524;BME280;53689;56.878;60.672;2023-02-18T08:54:06;98132.59;;;20.99;17.74
62524;BME280;53689;56.878;60.672;2023-02-18T08:56:34;98130.03;;;20.90;17.08
62524;BME280;53689;56.878;60.672;2023-02-18T08:59:01;98131.31;;;20.95;17.24
62524;BME280;53689;56.878;60.672;2023-02-18T09:01:29;98121.09;;;20.83;17.77
62524;BME280;53689;56.878;60.672;2023-02-18T09:03:58;98122.78;;;21.26;17.39
62524;BME280;53689;56.878;60.672;2023-02-18T09:06:26;98120.59;;;21.01;17.10
62524;BME280;53689;56.878;60.672;2023-02-18T09:08:54;98109.31;;;20.91;17.20
62524;BME280;53689;56.878;60.672;2023-02-18T09:11:22;98103.56;;;20.94;18.36
62524;BME280;53689;56.878;60.672;2023-02-18T09:13:50;98103.94;;;20.91;18.67
62524;BME280;53689;56.878;60.672;2023-02-18T09:16:17;98099.81;;;20.88;17.40
62524;BME280;53689;56.878;60.672;2023-02-18T09:18:46;98094.75;;;21.07;18.46
62524;BME280;53689;56.878;60.672;2023-02-18T09:21:17;98090.34;;;20.99;17.58
62524;BME280;53689;56.878;60.672;2023-02-18T09:23:45;98095.69;;;20.92;17.68
62524;BME280;53689;56.878;60.672;2023-02-18T09:26:15;98093.81;;;20.64;18.62
62524;BME280;53689;56.878;60.672;2023-02-18T09:28:44;98096.63;;;20.78;17.62
62524;BME280;53689;56.878;60.672;2023-02-18T09:31:17;98090.47;;;20.84;17.01
62524;BME280;53689;56.878;60.672;2023-02-18T09:33:47;98090.72;;;20.89;19.09
62524;BME280;53689;56.878;60.672;2023-02-18T09:36:17;98090.41;;;21.06;17.20
62524;BME280;53689;56.878;60.672;2023-02-18T09:38:45;98090.59;;;21.04;17.43
62524;BME280;53689;56.878;60.672;2023-02-18T09:41:18;98089.75;;;21.04;17.54
62524;BME280;53689;56.878;60.672;2023-02-18T09:43:54;98081.22;;;21.00;16.99
62524;BME280;53689;56.878;60.672;2023-02-18T09:46:27;98079.22;;;21.09;16.54
62524;BME280;53689;56.878;60.672;2023-02-18T09:48:56;98082.63;;;21.25;19.33
62524;BME280;53689;56.878;60.672;2023-02-18T09:51:26;98077.56;;;21.08;17.79
62524;BME280;53689;56.878;60.672;2023-02-18T09:53:55;98074.00;;;21.01;17.30
62524;BME280;53689;56.878;60.672;2023-02-18T09:56:27;98067.00;;;21.13;16.69
62524;BME280;53689;56.878;60.672;2023-02-18T09:58:57;98073.81;;;21.02;16.93
62524;BME280;53689;56.878;60.672;2023-02-18T10:01:29;98068.28;;;21.11;17.46
62524;BME280;53689;56.878;60.672;2023-02-18T10:04:01;98063.88;;;21.10;17.06
62524;BME280;53689;56.878;60.672;2023-02-18T10:06:33;98063.69;;;21.04;17.25
62524;BME280;53689;56.878;60.672;2023-02-18T10:09:03;98061.47;;;21.21;17.89
62524;BME280;53689;56.878;60.672;2023-02-18T10:11:39;98058.16;;;21.19;18.01
62524;BME280;53689;56.878;60.672;2023-02-18T10:14:10;98057.81;;;21.36;20.86
62524;BME280;53689;56.878;60.672;2023-02-18T10:16:39;98054.63;;;21.68;18.71
62524;BME280;53689;56.878;60.672;2023-02-18T10:19:22;98064.59;;;21.81;18.98
62524;BME280;53689;56.878;60.672;2023-02-18T10:21:52;98048.97;;;21.56;17.25
62524;BME280;53689;56.878;60.672;2023-02-18T10:24:29;98057.41;;;21.39;17.46
62524;BME280;53689;56.878;60.672;2023-02-18T10:26:58;98053.81;;;21.18;17.58
62524;BME280;53689;56.878;60.672;2023-02-18T10:29:27;98051.66;;;21.49;19.34
62524;BME280;53689;56.878;60.672;2023-02-18T10:31:56;98059.00;;;21.20;17.51
62524;BME280;53689;56.878;60.672;2023-02-18T10:34:39;98056.56;;;21.39;20.05
62524;BME280;53689;56.878;60.672;2023-02-18T10:37:19;98057.72;;;21.16;17.14
62524;BME280;53689;56.878;60.672;2023-02-18T10:40:00;98059.03;;;21.27;17.56
62524;BME280;53689;56.878;60.672;2023-02-18T10:42:39;98059.00;;;21.20;17.49
62524;BME280;53689;56.878;60.672;2023-02-18T10:45:21;98065.63;;;21.24;18.87
62524;BME280;53689;56.878;60.672;2023-02-18T10:47:53;98064.63;;;21.32;20.29
62524;BME280;53689;56.878;60.672;2023-02-18T10:50:29;98070.16;;;21.24;17.69
62524;BME280;53689;56.878;60.672;2023-02-18T10:53:02;98063.59;;;21.33;18.60
62524;BME280;53689;56.878;60.672;2023-02-18T10:55:37;98063.72;;;21.18;17.46
62524;BME280;53689;56.878;60.672;2023-02-18T10:58:24;98066.97;;;21.48;19.34
62524;BME280;53689;56.878;60.672;2023-02-18T11:00:53;98062.09;;;21.72;19.12
62524;BME280;53689;56.878;60.672;2023-02-18T11:03:21;98080.19;;;21.92;19.67
62524;BME280;53689;56.878;60.672;2023-02-18T11:05:51;98075.50;;;21.59;17.88
62524;BME280;53689;56.878;60.672;2023-02-18T11:08:23;98070.28;;;21.51;17.29
62524;BME280;53689;56.878;60.672;2023-02-18T11:10:52;98078.31;;;21.37;16.74
62524;BME280;53689;56.878;60.672;2023-02-18T11:13:25;98069.66;;;21.48;17.54
62524;BME280;53689;56.878;60.672;2023-02-18T11:15:56;98079.19;;;21.44;17.91
62524;BME280;53689;56.878;60.672;2023-02-18T11:18:31;98071.03;;;21.31;17.05
62524;BME280;53689;56.878;60.672;2023-02-18T11:21:02;98075.19;;;21.33;19.36
62524;BME280;53689;56.878;60.672;2023-02-18T11:23:31;98074.00;;;21.43;18.54
62524;BME280;53689;56.878;60.672;2023-02-18T11:26:14;98070.25;;;21.44;18.92
62524;BME280;53689;56.878;60.672;2023-02-18T11:28:43;98063.38;;;21.28;18.47
62524;BME280;53689;56.878;60.672;2023-02-18T11:31:19;98075.59;;;21.30;18.50
62524;BME280;53689;56.878;60.672;2023-02-18T11:33:50;98071.84;;;21.25;17.38
62524;BME280;53689;56.878;60.672;2023-02-18T11:36:22;98069.06;;;21.53;20.63
62524;BME280;53689;56.878;60.672;2023-02-18T11:38:53;98075.78;;;21.29;19.36
62524;BME280;53689;56.878;60.672;2023-02-18T11:41:30;98064.88;;;21.44;19.51
62524;BME280;53689;56.878;60.672;2023-02-18T11:43:59;98065.50;;;21.46;19.57
62524;BME280;53689;56.878;60.672;2023-02-18T11:46:28;98059.25;;;21.39;17.41
62524;BME280;53689;56.878;60.672;2023-02-18T11:49:10;98053.47;;;21.35;17.21
62524;BME280;53689;56.878;60.672;2023-02-18T11:51:47;98064.28;;;21.48;19.17
62524;BME280;53689;56.878;60.672;2023-02-18T11:54:25;98063.22;;;21.43;18.57
62524;BME280;53689;56.878;60.672;2023-02-18T11:56:56;98060.72;;;21.41;17.54
62524;BME280;53689;56.878;60.672;2023-02-18T11:59:24;98059.44;;;21.30;18.12
62524;BME280;53689;56.878;60.672;2023-02-18T12:01:57;98058.88;;;21.42;17.71
62524;BME280;53689;56.878;60.672;2023-02-18T12:04:32;98063.59;;;21.33;16.99
62524;BME280;53689;56.878;60.672;2023-02-18T12:07:14;98052.69;;;21.55;17.88
62524;BME280;53689;56.878;60.672;2023-02-18T12:09:47;98062.00;;;21.45;16.44
62524;BME280;53689;56.878;60.672;2023-02-18T12:12:19;98061.81;;;21.54;18.35
62524;BME280;53689;56.878;60.672;2023-02-18T12:14:54;98067.84;;;21.62;19.81
62524;BME280;53689;56.878;60.672;2023-02-18T12:17:51;98067.81;;;21.56;20.66
62524;BME280;53689;56.878;60.672;2023-02-18T12:20:40;98065.31;;;21.47;18.69
62524;BME280;53689;56.878;60.672;2023-02-18T12:23:19;98068.69;;;21.63;21.54
62524;BME280;53689;56.878;60.672;2023-02-18T12:25:58;98066.78;;;21.57;18.48
62524;BME280;53689;56.878;60.672;2023-02-18T12:28:41;98065.16;;;21.62;19.66
62524;BME280;53689;56.878;60.672;2023-02-18T12:31:24;98068.44;;;21.58;20.04
62524;BME280;53689;56.878;60.672;2023-02-18T12:34:04;98055.59;;;21.53;19.63
62524;BME280;53689;56.878;60.672;2023-02-18T12:36:48;98063.63;;;21.40;17.54
62524;BME280;53689;56.878;60.672;2023-02-18T12:39:27;98059.47;;;21.37;18.24
62524;BME280;53689;56.878;60.672;2023-02-18T12:42:11;98066.06;;;21.28;18.49
62524;BME280;53689;56.878;60.672;2023-02-18T12:44:55;98070.78;;;21.19;17.82
62524;BME280;53689;56.878;60.672;2023-02-18T12:47:33;98075.09;;;21.13;18.37
62524;BME280;53689;56.878;60.672;2023-02-18T12:50:29;98072.22;;;21.15;18.08
62524;BME280;53689;56.878;60.672;2023-02-18T12:53:11;98068.06;;;21.12;17.70
62524;BME280;53689;56.878;60.672;2023-02-18T12:55:54;98069.34;;;21.16;18.77
62524;BME280;53689;56.878;60.672;2023-02-18T12:58:36;98066.38;;;21.11;19.31
62524;BME280;53689;56.878;60.672;2023-02-18T13:04:35;98072.56;;;21.05;17.66
62524;BME280;53689;56.878;60.672;2023-02-18T13:07:45;98070.47;;;21.00;16.89
62524;BME280;53689;56.878;60.672;2023-02-18T13:10:40;98065.53;;;21.04;17.25
62524;BME280;53689;56.878;60.672;2023-02-18T13:13:13;98065.59;;;21.17;18.23
62524;BME280;53689;56.878;60.672;2023-02-18T13:15:47;98073.06;;;21.15;18.10
62524;BME280;53689;56.878;60.672;2023-02-18T13:18:19;98065.97;;;21.07;18.33
62524;BME280;53689;56.878;60.672;2023-02-18T13:20:50;98069.25;;;21.03;17.13
62524;BME280;53689;56.878;60.672;2023-02-18T13:23:21;98069.47;;;21.01;16.60
62524;BME280;53689;56.878;60.672;2023-02-18T13:25:54;98063.22;;;20.94;16.91